sensor_id;sensor_type;location;lat;lon;timestamp;pressure;altitude;pressure_sealevel;temperature
27715;BMP280;16051;53.024;8.630;2022-11-12T00:00:59;103138.00;;;5.03
27715;BMP280;16051;53.024;8.630;2022-11-12T00:05:01;103123.44;;;4.95
27715;BMP280;16051;53.024;8.630;2022-11-12T00:09:03;103139.09;;;4.94
27715;BMP280;16051;53.024;8.630;2022-11-12T00:13:06;103141.34;;;4.89
27715;BMP280;16051;53.024;8.630;2022-11-12T00:17:09;103146.03;;;4.88
27715;BMP280;16051;53.024;8.630;2022-11-12T00:21:11;103149.50;;;4.82
27715;BMP280;16051;53.024;8.630;2022-11-12T00:25:20;103131.34;;;4.70
27715;BMP280;16051;53.024;8.630;2022-11-12T00:29:23;103145.19;;;4.81
27715;BMP280;16051;53.024;8.630;2022-11-12T00:33:26;103145.88;;;4.74
27715;BMP280;16051;53.024;8.630;2022-11-12T00:37:28;103150.94;;;4.72
27715;BMP280;16051;53.024;8.630;2022-11-12T00:41:30;103154.00;;;4.67
27715;BMP280;16051;53.024;8.630;2022-11-12T00:45:42;103154.00;;;4.67
27715;BMP280;16051;53.024;8.630;2022-11-12T00:49:46;103151.22;;;4.64
27715;BMP280;16051;53.024;8.630;2022-11-12T00:53:49;103139.44;;;4.60
27715;BMP280;16051;53.024;8.630;2022-11-12T00:57:51;103147.59;;;4.56
27715;BMP280;16051;53.024;8.630;2022-11-12T01:02:05;103147.94;;;4.51
27715;BMP280;16051;53.024;8.630;2022-11-12T01:06:12;103158.91;;;4.51
27715;BMP280;16051;53.024;8.630;2022-11-12T01:10:14;103153.38;;;4.47
27715;BMP280;16051;53.024;8.630;2022-11-12T01:14:16;103157.59;;;4.41
27715;BMP280;16051;53.024;8.630;2022-11-12T01:18:18;103151.69;;;4.39
27715;BMP280;16051;53.024;8.630;2022-11-12T01:22:22;103149.75;;;4.40
27715;BMP280;16051;53.024;8.630;2022-11-12T01:26:43;103159.81;;;4.32
27715;BMP280;16051;53.024;8.630;2022-11-12T01:30:45;103150.34;;;4.26
27715;BMP280;16051;53.024;8.630;2022-11-12T01:34:49;103138.56;;;4.22
27715;BMP280;16051;53.024;8.630;2022-11-12T01:38:54;103154.19;;;4.22
27715;BMP280;16051;53.024;8.630;2022-11-12T01:42:56;103141.63;;;4.17
27715;BMP280;16051;53.024;8.630;2022-11-12T01:47:05;103146.63;;;4.12
27715;BMP280;16051;53.024;8.630;2022-11-12T01:51:11;103162.16;;;4.04
27715;BMP280;16051;53.024;8.630;2022-11-12T01:55:31;103141.41;;;4.03
27715;BMP280;16051;53.024;8.630;2022-11-12T01:59:40;103155.09;;;4.03
27715;BMP280;16051;53.024;8.630;2022-11-12T02:03:43;103161.59;;;3.95
27715;BMP280;16051;53.024;8.630;2022-11-12T02:07:48;103163.47;;;3.91
27715;BMP280;16051;53.024;8.630;2022-11-12T02:11:51;103149.75;;;3.87
27715;BMP280;16051;53.024;8.630;2022-11-12T02:15:55;103154.88;;;3.89
27715;BMP280;16051;53.024;8.630;2022-11-12T02:19:58;103159.19;;;3.90
27715;BMP280;16051;53.024;8.630;2022-11-12T02:24:33;103150.94;;;3.86
27715;BMP280;16051;53.024;8.630;2022-11-12T02:28:36;103153.16;;;3.81
27715;BMP280;16051;53.024;8.630;2022-11-12T02:32:38;103147.28;;;3.79
27715;BMP280;16051;53.024;8.630;2022-11-12T02:36:41;103144.56;;;3.79
27715;BMP280;16051;53.024;8.630;2022-11-12T02:40:44;103148.44;;;3.78
27715;BMP280;16051;53.024;8.630;2022-11-12T02:44:54;103151.53;;;3.76
27715;BMP280;16051;53.024;8.630;2022-11-12T02:48:56;103135.13;;;3.76
27715;BMP280;16051;53.024;8.630;2022-11-12T02:58:25;103133.13;;;3.73
27715;BMP280;16051;53.024;8.630;2022-11-12T03:02:27;103134.66;;;3.71
27715;BMP280;16051;53.024;8.630;2022-11-12T03:06:29;103135.00;;;3.69
27715;BMP280;16051;53.024;8.630;2022-11-12T03:10:32;103136.91;;;3.65
27715;BMP280;16051;53.024;8.630;2022-11-12T03:14:36;103132.09;;;3.59
27715;BMP280;16051;53.024;8.630;2022-11-12T03:19:03;103143.34;;;3.54
27715;BMP280;16051;53.024;8.630;2022-11-12T03:23:08;103136.97;;;3.46
27715;BMP280;16051;53.024;8.630;2022-11-12T03:27:11;103147.84;;;3.42
27715;BMP280;16051;53.024;8.630;2022-11-12T03:31:14;103149.66;;;3.35
27715;BMP280;16051;53.024;8.630;2022-11-12T03:35:16;103153.00;;;3.25
27715;BMP280;16051;53.024;8.630;2022-11-12T03:39:19;103152.22;;;3.24
27715;BMP280;16051;53.024;8.630;2022-11-12T03:43:40;103138.91;;;3.23
27715;BMP280;16051;53.024;8.630;2022-11-12T03:47:46;103159.97;;;3.22
27715;BMP280;16051;53.024;8.630;2022-11-12T03:51:48;103156.16;;;3.27
27715;BMP280;16051;53.024;8.630;2022-11-12T03:55:51;103153.34;;;3.23
27715;BMP280;16051;53.024;8.630;2022-11-12T03:59:53;103159.53;;;3.20
27715;BMP280;16051;53.024;8.630;2022-11-12T04:03:57;103157.59;;;3.21
27715;BMP280;16051;53.024;8.630;2022-11-12T04:08:00;103152.06;;;3.17
27715;BMP280;16051;53.024;8.630;2022-11-12T04:12:16;103153.22;;;3.16
27715;BMP280;16051;53.024;8.630;2022-11-12T04:16:36;103152.81;;;3.14
27715;BMP280;16051;53.024;8.630;2022-11-12T04:20:57;103151.94;;;3.10
27715;BMP280;16051;53.024;8.630;2022-11-12T04:25:31;103153.44;;;3.08
27715;BMP280;16051;53.024;8.630;2022-11-12T04:29:52;103146.69;;;3.02
27715;BMP280;16051;53.024;8.630;2022-11-12T04:34:11;103150.16;;;2.98
27715;BMP280;16051;53.024;8.630;2022-11-12T04:38:33;103160.34;;;3.02
27715;BMP280;16051;53.024;8.630;2022-11-12T04:42:35;103153.97;;;2.94
27715;BMP280;16051;53.024;8.630;2022-11-12T04:46:55;103145.69;;;2.90
27715;BMP280;16051;53.024;8.630;2022-11-12T04:51:12;103144.84;;;2.86
27715;BMP280;16051;53.024;8.630;2022-11-12T04:55:31;103144.69;;;2.79
27715;BMP280;16051;53.024;8.630;2022-11-12T04:59:33;103148.94;;;2.77
27715;BMP280;16051;53.024;8.630;2022-11-12T05:03:35;103165.75;;;2.79
27715;BMP280;16051;53.024;8.630;2022-11-12T05:07:37;103156.00;;;2.78
27715;BMP280;16051;53.024;8.630;2022-11-12T05:11:49;103149.75;;;2.77
27715;BMP280;16051;53.024;8.630;2022-11-12T05:15:52;103154.34;;;2.73
27715;BMP280;16051;53.024;8.630;2022-11-12T05:19:54;103157.00;;;2.70
27715;BMP280;16051;53.024;8.630;2022-11-12T05:24:00;103159.28;;;2.68
27715;BMP280;16051;53.024;8.630;2022-11-12T05:28:04;103161.16;;;2.64
27715;BMP280;16051;53.024;8.630;2022-11-12T05:32:08;103152.09;;;2.60
27715;BMP280;16051;53.024;8.630;2022-11-12T05:36:10;103140.75;;;2.58
27715;BMP280;16051;53.024;8.630;2022-11-12T05:40:13;103130.91;;;2.53
27715;BMP280;16051;53.024;8.630;2022-11-12T05:44:16;103137.13;;;2.54
27715;BMP280;16051;53.024;8.630;2022-11-12T05:48:19;103144.50;;;2.50
27715;BMP280;16051;53.024;8.630;2022-11-12T05:52:21;103136.50;;;2.41
27715;BMP280;16051;53.024;8.630;2022-11-12T05:56:23;103162.28;;;2.43
27715;BMP280;16051;53.024;8.630;2022-11-12T06:00:27;103151.00;;;2.45
27715;BMP280;16051;53.024;8.630;2022-11-12T06:04:29;103170.84;;;2.42
27715;BMP280;16051;53.024;8.630;2022-11-12T06:08:31;103173.19;;;2.43
27715;BMP280;16051;53.024;8.630;2022-11-12T06:12:33;103152.78;;;2.37
27715;BMP280;16051;53.024;8.630;2022-11-12T06:16:37;103164.50;;;2.38
27715;BMP280;16051;53.024;8.630;2022-11-12T06:20:40;103157.88;;;2.39
27715;BMP280;16051;53.024;8.630;2022-11-12T06:24:45;103147.97;;;2.31
27715;BMP280;16051;53.024;8.630;2022-11-12T06:28:48;103172.16;;;2.32
27715;BMP280;16051;53.024;8.630;2022-11-12T06:32:51;103170.88;;;2.26
27715;BMP280;16051;53.024;8.630;2022-11-12T06:36:54;103149.75;;;2.23
27715;BMP280;16051;53.024;8.630;2022-11-12T06:40:56;103180.19;;;2.25
27715;BMP280;16051;53.024;8.630;2022-11-12T06:44:58;103169.28;;;2.25
27715;BMP280;16051;53.024;8.630;2022-11-12T06:49:02;103167.34;;;2.26
27715;BMP280;16051;53.024;8.630;2022-11-12T06:53:04;103171.72;;;2.30
27715;BMP280;16051;53.024;8.630;2022-11-12T06:57:06;103167.16;;;2.34
27715;BMP280;16051;53.024;8.630;2022-11-12T07:01:11;103159.69;;;2.31
27715;BMP280;16051;53.024;8.630;2022-11-12T07:05:15;103187.81;;;2.35
27715;BMP280;16051;53.024;8.630;2022-11-12T07:09:17;103185.09;;;2.35
27715;BMP280;16051;53.024;8.630;2022-11-12T07:13:22;103189.84;;;2.38
27715;BMP280;16051;53.024;8.630;2022-11-12T07:17:24;103203.84;;;2.37
27715;BMP280;16051;53.024;8.630;2022-11-12T07:21:27;103200.75;;;2.38
27715;BMP280;16051;53.024;8.630;2022-11-12T07:25:30;103207.44;;;2.41
27715;BMP280;16051;53.024;8.630;2022-11-12T07:29:32;103210.16;;;2.41
27715;BMP280;16051;53.024;8.630;2022-11-12T07:33:34;103201.97;;;2.41
27715;BMP280;16051;53.024;8.630;2022-11-12T07:37:38;103213.84;;;2.48
27715;BMP280;16051;53.024;8.630;2022-11-12T07:41:40;103219.81;;;2.54
27715;BMP280;16051;53.024;8.630;2022-11-12T07:45:42;103200.38;;;2.56
27715;BMP280;16051;53.024;8.630;2022-11-12T07:50:16;103210.63;;;2.62
27715;BMP280;16051;53.024;8.630;2022-11-12T07:54:20;103221.78;;;2.73
27715;BMP280;16051;53.024;8.630;2022-11-12T07:58:22;103213.09;;;2.86
27715;BMP280;16051;53.024;8.630;2022-11-12T08:02:27;103225.69;;;2.91
27715;BMP280;16051;53.024;8.630;2022-11-12T08:06:32;103232.34;;;2.93
27715;BMP280;16051;53.024;8.630;2022-11-12T08:10:37;103231.38;;;3.02
27715;BMP280;16051;53.024;8.630;2022-11-12T08:14:42;103226.56;;;3.14
27715;BMP280;16051;53.024;8.630;2022-11-12T08:18:44;103230.06;;;3.15
27715;BMP280;16051;53.024;8.630;2022-11-12T08:22:59;103229.44;;;3.21
27715;BMP280;16051;53.024;8.630;2022-11-12T08:27:02;103217.41;;;3.26
27715;BMP280;16051;53.024;8.630;2022-11-12T08:31:33;103226.19;;;3.35
27715;BMP280;16051;53.024;8.630;2022-11-12T08:35:37;103230.31;;;3.48
27715;BMP280;16051;53.024;8.630;2022-11-12T08:39:48;103235.97;;;3.59
27715;BMP280;16051;53.024;8.630;2022-11-12T08:43:52;103233.44;;;3.69
27715;BMP280;16051;53.024;8.630;2022-11-12T08:47:59;103235.59;;;3.79
27715;BMP280;16051;53.024;8.630;2022-11-12T08:52:09;103229.97;;;3.95
27715;BMP280;16051;53.024;8.630;2022-11-12T08:56:11;103229.97;;;4.18
27715;BMP280;16051;53.024;8.630;2022-11-12T09:00:17;103244.03;;;4.42
27715;BMP280;16051;53.024;8.630;2022-11-12T09:04:19;103249.75;;;4.60
27715;BMP280;16051;53.024;8.630;2022-11-12T09:08:23;103244.16;;;4.79
27715;BMP280;16051;53.024;8.630;2022-11-12T09:12:26;103253.41;;;4.97
27715;BMP280;16051;53.024;8.630;2022-11-12T09:16:37;103256.13;;;5.27
27715;BMP280;16051;53.024;8.630;2022-11-12T09:20:40;103250.13;;;5.52
27715;BMP280;16051;53.024;8.630;2022-11-12T09:25:00;103272.69;;;5.75
27715;BMP280;16051;53.024;8.630;2022-11-12T09:29:02;103275.31;;;6.01
27715;BMP280;16051;53.024;8.630;2022-11-12T09:33:28;103254.88;;;6.42
27715;BMP280;16051;53.024;8.630;2022-11-12T09:37:31;103249.91;;;6.66
27715;BMP280;16051;53.024;8.630;2022-11-12T09:41:41;103249.72;;;7.06
27715;BMP280;16051;53.024;8.630;2022-11-12T09:45:45;103245.13;;;7.42
27715;BMP280;16051;53.024;8.630;2022-11-12T09:50:15;103259.69;;;7.60
27715;BMP280;16051;53.024;8.630;2022-11-12T09:54:27;103260.47;;;7.47
27715;BMP280;16051;53.024;8.630;2022-11-12T09:58:33;103247.84;;;7.35
27715;BMP280;16051;53.024;8.630;2022-11-12T10:02:42;103242.34;;;7.38
27715;BMP280;16051;53.024;8.630;2022-11-12T10:07:03;103241.16;;;7.32
27715;BMP280;16051;53.024;8.630;2022-11-12T10:11:44;103250.97;;;7.26
27715;BMP280;16051;53.024;8.630;2022-11-12T10:16:21;103251.75;;;7.23
27715;BMP280;16051;53.024;8.630;2022-11-12T10:20:49;103253.72;;;7.26
27715;BMP280;16051;53.024;8.630;2022-11-12T10:25:13;103242.75;;;7.33
27715;BMP280;16051;53.024;8.630;2022-11-12T10:29:27;103246.69;;;7.47
27715;BMP280;16051;53.024;8.630;2022-11-12T10:33:31;103249.09;;;7.59
27715;BMP280;16051;53.024;8.630;2022-11-12T10:37:41;103242.44;;;7.77
27715;BMP280;16051;53.024;8.630;2022-11-12T10:42:02;103231.44;;;8.09
27715;BMP280;16051;53.024;8.630;2022-11-12T10:46:17;103234.19;;;8.20
27715;BMP280;16051;53.024;8.630;2022-11-12T10:50:24;103236.94;;;8.20
27715;BMP280;16051;53.024;8.630;2022-11-12T10:54:36;103239.28;;;8.18
27715;BMP280;16051;53.024;8.630;2022-11-12T10:58:40;103232.22;;;8.17
27715;BMP280;16051;53.024;8.630;2022-11-12T11:02:54;103245.59;;;8.22
27715;BMP280;16051;53.024;8.630;2022-11-12T11:07:14;103244.78;;;8.25
27715;BMP280;16051;53.024;8.630;2022-11-12T11:11:22;103239.72;;;8.34
27715;BMP280;16051;53.024;8.630;2022-11-12T11:15:26;103242.06;;;8.46
27715;BMP280;16051;53.024;8.630;2022-11-12T11:19:35;103249.09;;;8.58
27715;BMP280;16051;53.024;8.630;2022-11-12T11:28:47;103231.31;;;8.83
27715;BMP280;16051;53.024;8.630;2022-11-12T11:33:23;103236.41;;;8.92
27715;BMP280;16051;53.024;8.630;2022-11-12T11:37:29;103224.19;;;9.00
27715;BMP280;16051;53.024;8.630;2022-11-12T11:41:53;103206.38;;;9.08
27715;BMP280;16051;53.024;8.630;2022-11-12T11:46:13;103209.50;;;9.21
27715;BMP280;16051;53.024;8.630;2022-11-12T11:50:26;103205.06;;;9.34
27715;BMP280;16051;53.024;8.630;2022-11-12T11:54:59;103184.03;;;9.58
27715;BMP280;16051;53.024;8.630;2022-11-12T11:59:21;103187.88;;;9.71
27715;BMP280;16051;53.024;8.630;2022-11-12T12:03:40;103196.81;;;9.85
27715;BMP280;16051;53.024;8.630;2022-11-12T12:07:58;103175.47;;;9.93
27715;BMP280;16051;53.024;8.630;2022-11-12T12:12:13;103181.22;;;10.09
27715;BMP280;16051;53.024;8.630;2022-11-12T12:16:36;103179.56;;;10.22
27715;BMP280;16051;53.024;8.630;2022-11-12T12:20:48;103178.69;;;10.29
27715;BMP280;16051;53.024;8.630;2022-11-12T12:25:01;103178.19;;;10.41
27715;BMP280;16051;53.024;8.630;2022-11-12T12:29:14;103167.41;;;10.50
27715;BMP280;16051;53.024;8.630;2022-11-12T12:33:29;103164.47;;;10.64
27715;BMP280;16051;53.024;8.630;2022-11-12T12:37:38;103169.47;;;10.76
27715;BMP280;16051;53.024;8.630;2022-11-12T12:41:51;103163.88;;;10.80
27715;BMP280;16051;53.024;8.630;2022-11-12T12:45:57;103162.13;;;10.93
27715;BMP280;16051;53.024;8.630;2022-11-12T12:50:06;103156.94;;;10.99
27715;BMP280;16051;53.024;8.630;2022-11-12T12:54:54;103152.88;;;11.07
27715;BMP280;16051;53.024;8.630;2022-11-12T12:58:59;103157.13;;;11.11
27715;BMP280;16051;53.024;8.630;2022-11-12T13:03:04;103152.34;;;11.15
27715;BMP280;16051;53.024;8.630;2022-11-12T13:07:07;103141.22;;;11.19
27715;BMP280;16051;53.024;8.630;2022-11-12T13:11:52;103138.34;;;11.26
27715;BMP280;16051;53.024;8.630;2022-11-12T13:16:55;103145.84;;;11.25
27715;BMP280;16051;53.024;8.630;2022-11-12T13:21:14;103132.63;;;11.13
27715;BMP280;16051;53.024;8.630;2022-11-12T13:25:29;103125.91;;;11.11
27715;BMP280;16051;53.024;8.630;2022-11-12T13:29:43;103133.91;;;11.05
27715;BMP280;16051;53.024;8.630;2022-11-12T13:33:47;103141.69;;;11.14
27715;BMP280;16051;53.024;8.630;2022-11-12T13:37:52;103143.34;;;11.34
27715;BMP280;16051;53.024;8.630;2022-11-12T13:41:57;103137.69;;;11.92
27715;BMP280;16051;53.024;8.630;2022-11-12T13:46:26;103147.13;;;12.37
27715;BMP280;16051;53.024;8.630;2022-11-12T13:50:34;103138.81;;;12.57
27715;BMP280;16051;53.024;8.630;2022-11-12T13:54:38;103147.06;;;12.96
27715;BMP280;16051;53.024;8.630;2022-11-12T13:58:41;103144.75;;;13.30
27715;BMP280;16051;53.024;8.630;2022-11-12T14:02:48;103132.06;;;13.46
27715;BMP280;16051;53.024;8.630;2022-11-12T14:06:57;103130.25;;;13.39
27715;BMP280;16051;53.024;8.630;2022-11-12T14:11:42;103125.13;;;13.38
27715;BMP280;16051;53.024;8.630;2022-11-12T14:16:02;103131.81;;;13.56
27715;BMP280;16051;53.024;8.630;2022-11-12T14:20:32;103130.69;;;13.38
27715;BMP280;16051;53.024;8.630;2022-11-12T14:25:00;103117.91;;;12.88
27715;BMP280;16051;53.024;8.630;2022-11-12T14:29:12;103113.81;;;12.41
27715;BMP280;16051;53.024;8.630;2022-11-12T14:33:19;103111.91;;;11.95
27715;BMP280;16051;53.024;8.630;2022-11-12T14:37:34;103116.63;;;11.74
27715;BMP280;16051;53.024;8.630;2022-11-12T14:41:42;103118.06;;;11.32
27715;BMP280;16051;53.024;8.630;2022-11-12T14:45:47;103115.69;;;11.08
27715;BMP280;16051;53.024;8.630;2022-11-12T14:49:50;103116.72;;;10.91
27715;BMP280;16051;53.024;8.630;2022-11-12T14:54:02;103115.41;;;10.72
27715;BMP280;16051;53.024;8.630;2022-11-12T14:58:13;103124.28;;;10.56
27715;BMP280;16051;53.024;8.630;2022-11-12T15:02:32;103115.31;;;10.49
27715;BMP280;16051;53.024;8.630;2022-11-12T15:06:36;103113.88;;;10.37
27715;BMP280;16051;53.024;8.630;2022-11-12T15:10:40;103105.75;;;10.23
27715;BMP280;16051;53.024;8.630;2022-11-12T15:14:48;103104.66;;;10.10
27715;BMP280;16051;53.024;8.630;2022-11-12T15:19:06;103106.03;;;9.95
27715;BMP280;16051;53.024;8.630;2022-11-12T15:23:17;103104.97;;;9.81
27715;BMP280;16051;53.024;8.630;2022-11-12T15:27:36;103105.47;;;9.73
27715;BMP280;16051;53.024;8.630;2022-11-12T15:31:47;103108.25;;;9.66
27715;BMP280;16051;53.024;8.630;2022-11-12T15:35:56;103099.66;;;9.57
27715;BMP280;16051;53.024;8.630;2022-11-12T15:40:14;103101.38;;;9.44
27715;BMP280;16051;53.024;8.630;2022-11-12T15:44:18;103101.06;;;9.31
27715;BMP280;16051;53.024;8.630;2022-11-12T15:48:22;103103.84;;;9.27
27715;BMP280;16051;53.024;8.630;2022-11-12T15:52:25;103102.31;;;9.19
27715;BMP280;16051;53.024;8.630;2022-11-12T15:56:27;103097.28;;;9.11
27715;BMP280;16051;53.024;8.630;2022-11-12T16:00:32;103087.84;;;9.05
27715;BMP280;16051;53.024;8.630;2022-11-12T16:04:36;103095.78;;;8.96
27715;BMP280;16051;53.024;8.630;2022-11-12T16:08:39;103104.50;;;8.87
27715;BMP280;16051;53.024;8.630;2022-11-12T16:12:42;103107.72;;;8.75
27715;BMP280;16051;53.024;8.630;2022-11-12T16:16:46;103099.53;;;8.64
27715;BMP280;16051;53.024;8.630;2022-11-12T16:20:49;103085.00;;;8.53
27715;BMP280;16051;53.024;8.630;2022-11-12T16:24:58;103088.97;;;8.45
27715;BMP280;16051;53.024;8.630;2022-11-12T16:29:00;103077.59;;;8.32
27715;BMP280;16051;53.024;8.630;2022-11-12T16:33:17;103086.66;;;8.26
27715;BMP280;16051;53.024;8.630;2022-11-12T16:37:41;103076.06;;;8.07
27715;BMP280;16051;53.024;8.630;2022-11-12T16:41:43;103081.22;;;7.98
27715;BMP280;16051;53.024;8.630;2022-11-12T16:45:45;103063.16;;;7.82
27715;BMP280;16051;53.024;8.630;2022-11-12T16:49:47;103082.03;;;7.84
27715;BMP280;16051;53.024;8.630;2022-11-12T16:53:59;103091.88;;;7.78
27715;BMP280;16051;53.024;8.630;2022-11-12T16:58:19;103075.78;;;7.66
27715;BMP280;16051;53.024;8.630;2022-11-12T17:02:21;103071.84;;;7.56
27715;BMP280;16051;53.024;8.630;2022-11-12T17:06:50;103079.34;;;7.49
27715;BMP280;16051;53.024;8.630;2022-11-12T17:10:54;103073.06;;;7.41
27715;BMP280;16051;53.024;8.630;2022-11-12T17:14:56;103074.22;;;7.33
27715;BMP280;16051;53.024;8.630;2022-11-12T17:19:11;103062.81;;;7.27
27715;BMP280;16051;53.024;8.630;2022-11-12T17:23:15;103059.69;;;7.22
27715;BMP280;16051;53.024;8.630;2022-11-12T17:27:19;103065.19;;;7.18
27715;BMP280;16051;53.024;8.630;2022-11-12T17:31:22;103069.50;;;7.12
27715;BMP280;16051;53.024;8.630;2022-11-12T17:35:25;103073.00;;;7.06
27715;BMP280;16051;53.024;8.630;2022-11-12T17:39:31;103073.78;;;7.03
27715;BMP280;16051;53.024;8.630;2022-11-12T17:43:45;103076.53;;;7.03
27715;BMP280;16051;53.024;8.630;2022-11-12T17:47:47;103062.41;;;6.93
27715;BMP280;16051;53.024;8.630;2022-11-12T17:52:00;103068.28;;;6.92
27715;BMP280;16051;53.024;8.630;2022-11-12T17:56:05;103050.19;;;6.84
27715;BMP280;16051;53.024;8.630;2022-11-12T18:00:13;103049.00;;;6.78
27715;BMP280;16051;53.024;8.630;2022-11-12T18:04:15;103047.84;;;6.72
27715;BMP280;16051;53.024;8.630;2022-11-12T18:08:17;103055.66;;;6.63
27715;BMP280;16051;53.024;8.630;2022-11-12T18:12:19;103042.31;;;6.61
27715;BMP280;16051;53.024;8.630;2022-11-12T18:16:25;103041.91;;;6.59
27715;BMP280;16051;53.024;8.630;2022-11-12T18:20:36;103041.88;;;6.52
27715;BMP280;16051;53.024;8.630;2022-11-12T18:24:52;103039.53;;;6.47
27715;BMP280;16051;53.024;8.630;2022-11-12T18:28:55;103051.66;;;6.39
27715;BMP280;16051;53.024;8.630;2022-11-12T18:33:00;103054.38;;;6.35
27715;BMP280;16051;53.024;8.630;2022-11-12T18:37:02;103039.84;;;6.28
27715;BMP280;16051;53.024;8.630;2022-11-12T18:41:14;103046.09;;;6.25
27715;BMP280;16051;53.024;8.630;2022-11-12T18:45:30;103037.47;;;6.23
27715;BMP280;16051;53.024;8.630;2022-11-12T18:49:35;103048.41;;;6.19
27715;BMP280;16051;53.024;8.630;2022-11-12T18:53:38;103041.34;;;6.08
27715;BMP280;16051;53.024;8.630;2022-11-12T18:57:55;103033.06;;;6.04
27715;BMP280;16051;53.024;8.630;2022-11-12T19:01:58;103034.59;;;5.98
27715;BMP280;16051;53.024;8.630;2022-11-12T19:06:04;103033.78;;;5.94
27715;BMP280;16051;53.024;8.630;2022-11-12T19:10:12;103032.97;;;5.90
27715;BMP280;16051;53.024;8.630;2022-11-12T19:14:14;103025.91;;;5.85
27715;BMP280;16051;53.024;8.630;2022-11-12T19:18:16;103019.59;;;5.81
27715;BMP280;16051;53.024;8.630;2022-11-12T19:22:20;103007.41;;;5.75
27715;BMP280;16051;53.024;8.630;2022-11-12T19:26:23;103000.72;;;5.69
27715;BMP280;16051;53.024;8.630;2022-11-12T19:30:28;102986.94;;;5.59
27715;BMP280;16051;53.024;8.630;2022-11-12T19:34:30;102998.69;;;5.59
27715;BMP280;16051;53.024;8.630;2022-11-12T19:38:34;103000.63;;;5.55
27715;BMP280;16051;53.024;8.630;2022-11-12T19:42:36;102989.25;;;5.50
27715;BMP280;16051;53.024;8.630;2022-11-12T19:46:49;102995.47;;;5.46
27715;BMP280;16051;53.024;8.630;2022-11-12T19:50:52;103001.72;;;5.43
27715;BMP280;16051;53.024;8.630;2022-11-12T19:54:56;102992.34;;;5.48
27715;BMP280;16051;53.024;8.630;2022-11-12T19:58:59;102986.47;;;5.42
27715;BMP280;16051;53.024;8.630;2022-11-12T20:03:01;102991.47;;;5.33
27715;BMP280;16051;53.024;8.630;2022-11-12T20:07:13;102987.81;;;5.15
27715;BMP280;16051;53.024;8.630;2022-11-12T20:11:30;102989.75;;;5.15
27715;BMP280;16051;53.024;8.630;2022-11-12T20:15:32;102989.34;;;5.09
27715;BMP280;16051;53.024;8.630;2022-11-12T20:20:09;102983.81;;;5.06
27715;BMP280;16051;53.024;8.630;2022-11-12T20:24:11;102988.91;;;5.07
27715;BMP280;16051;53.024;8.630;2022-11-12T20:28:22;102976.75;;;5.01
27715;BMP280;16051;53.024;8.630;2022-11-12T20:32:24;102980.63;;;5.00
27715;BMP280;16051;53.024;8.630;2022-11-12T20:36:28;102973.97;;;4.97
27715;BMP280;16051;53.024;8.630;2022-11-12T20:40:40;102973.63;;;5.03
27715;BMP280;16051;53.024;8.630;2022-11-12T20:44:43;102974.38;;;5.03
27715;BMP280;16051;53.024;8.630;2022-11-12T20:49:04;102977.91;;;5.04
27715;BMP280;16051;53.024;8.630;2022-11-12T20:53:08;102982.22;;;5.01
27715;BMP280;16051;53.024;8.630;2022-11-12T20:57:10;102974.31;;;4.96
27715;BMP280;16051;53.024;8.630;2022-11-12T21:01:16;102991.59;;;5.00
27715;BMP280;16051;53.024;8.630;2022-11-12T21:05:19;102977.50;;;4.98
27715;BMP280;16051;53.024;8.630;2022-11-12T21:09:22;102977.50;;;4.98
27715;BMP280;16051;53.024;8.630;2022-11-12T21:13:25;102976.31;;;4.95
27715;BMP280;16051;53.024;8.630;2022-11-12T21:17:28;102979.06;;;4.95
27715;BMP280;16051;53.024;8.630;2022-11-12T21:21:31;102971.59;;;4.96
27715;BMP280;16051;53.024;8.630;2022-11-12T21:25:34;102973.44;;;4.85
27715;BMP280;16051;53.024;8.630;2022-11-12T21:29:37;102971.44;;;4.78
27715;BMP280;16051;53.024;8.630;2022-11-12T21:33:41;102976.94;;;4.82
27715;BMP280;16051;53.024;8.630;2022-11-12T21:37:43;102967.56;;;4.83
27715;BMP280;16051;53.024;8.630;2022-11-12T21:41:45;102968.69;;;4.78
27715;BMP280;16051;53.024;8.630;2022-11-12T21:45:55;102972.63;;;4.77
27715;BMP280;16051;53.024;8.630;2022-11-12T21:49:58;102966.72;;;4.75
27715;BMP280;16051;53.024;8.630;2022-11-12T21:54:03;102968.63;;;4.71
27715;BMP280;16051;53.024;8.630;2022-11-12T21:59:01;102961.19;;;4.68
27715;BMP280;16051;53.024;8.630;2022-11-12T22:03:04;102964.28;;;4.67
27715;BMP280;16051;53.024;8.630;2022-11-12T22:07:07;102960.81;;;4.70
27715;BMP280;16051;53.024;8.630;2022-11-12T22:11:12;102950.63;;;4.70
27715;BMP280;16051;53.024;8.630;2022-11-12T22:15:15;102944.75;;;4.68
27715;BMP280;16051;53.024;8.630;2022-11-12T22:19:17;102959.59;;;4.67
27715;BMP280;16051;53.024;8.630;2022-11-12T22:23:20;102950.63;;;4.70
27715;BMP280;16051;53.024;8.630;2022-11-12T22:27:22;102960.81;;;4.70
27715;BMP280;16051;53.024;8.630;2022-11-12T22:31:28;102949.44;;;4.68
27715;BMP280;16051;53.024;8.630;2022-11-12T22:35:40;102955.31;;;4.66
27715;BMP280;16051;53.024;8.630;2022-11-12T22:39:43;102948.28;;;4.69
27715;BMP280;16051;53.024;8.630;2022-11-12T22:43:46;102947.84;;;4.67
27715;BMP280;16051;53.024;8.630;2022-11-12T22:47:49;102939.63;;;4.67
27715;BMP280;16051;53.024;8.630;2022-11-12T22:52:02;102935.72;;;4.64
27715;BMP280;16051;53.024;8.630;2022-11-12T22:56:09;102934.06;;;4.56
27715;BMP280;16051;53.024;8.630;2022-11-12T23:00:13;102920.78;;;4.55
27715;BMP280;16051;53.024;8.630;2022-11-12T23:04:15;102927.00;;;4.52
27715;BMP280;16051;53.024;8.630;2022-11-12T23:08:34;102918.34;;;4.46
27715;BMP280;16051;53.024;8.630;2022-11-12T23:12:38;102908.94;;;4.43
27715;BMP280;16051;53.024;8.630;2022-11-12T23:16:57;102911.28;;;4.45
27715;BMP280;16051;53.024;8.630;2022-11-12T23:21:04;102906.22;;;4.47
27715;BMP280;16051;53.024;8.630;2022-11-12T23:25:13;102901.16;;;4.49
27715;BMP280;16051;53.024;8.630;2022-11-12T23:29:17;102909.00;;;4.51
27715;BMP280;16051;53.024;8.630;2022-11-12T23:33:19;102913.31;;;4.52
27715;BMP280;16051;53.024;8.630;2022-11-12T23:37:21;102920.78;;;4.55
27715;BMP280;16051;53.024;8.630;2022-11-12T23:41:33;102919.63;;;4.56
27715;BMP280;16051;53.024;8.630;2022-11-12T23:45:36;102915.34;;;4.58
27715;BMP280;16051;53.024;8.630;2022-11-12T23:49:39;102907.16;;;4.62
27715;BMP280;16051;53.024;8.630;2022-11-12T23:53:41;102897.38;;;4.64
27715;BMP280;16051;53.024;8.630;2022-11-12T23:57:43;102902.09;;;4.67
